sensor_id;sensor_type;location;lat;lon;timestamp;pressure;altitude;pressure_sealevel;temperature;humidity
44255;BME280;29933;47.226;15.734;2022-09-27T00:01:17;95015.16;;;11.26;100.00
44255;BME280;29933;47.226;15.734;2022-09-27T00:03:43;95017.88;;;11.26;100.00
44255;BME280;29933;47.226;15.734;2022-09-27T00:06:14;95015.50;;;11.28;100.00
44255;BME280;29933;47.226;15.734;2022-09-27T00:08:40;95002.66;;;11.28;100.00
44255;BME280;29933;47.226;15.734;2022-09-27T00:11:11;94999.28;;;11.24;100.00
44255;BME280;29933;47.226;15.734;2022-09-27T00:13:39;94996.56;;;11.24;100.00
44255;BME280;29933;47.226;15.734;2022-09-27T00:16:05;94994.94;;;11.27;100.00
44255;BME280;29933;47.226;15.734;2022-09-27T00:18:32;94994.09;;;11.30;100.00
44255;BME280;29933;47.226;15.734;2022-09-27T00:21:06;94982.38;;;11.33;100.00
44255;BME280;29933;47.226;15.734;2022-09-27T00:23:32;94986.59;;;11.34;100.00
44255;BME280;29933;47.226;15.734;2022-09-27T00:25:58;94971.44;;;11.37;100.00
44255;BME280;29933;47.226;15.734;2022-09-27T00:28:24;94978.38;;;11.38;100.00
44255;BME280;29933;47.226;15.734;2022-09-27T00:30:50;94972.63;;;11.36;100.00
44255;BME280;29933;47.226;15.734;2022-09-27T00:33:16;94970.31;;;11.34;100.00
44255;BME280;29933;47.226;15.734;2022-09-27T00:35:42;94962.94;;;11.34;100.00
44255;BME280;29933;47.226;15.734;2022-09-27T00:38:09;94966.75;;;11.37;100.00
44255;BME280;29933;47.226;15.734;2022-09-27T00:40:35;94968.28;;;11.38;100.00
44255;BME280;29933;47.226;15.734;2022-09-27T00:43:01;94976.00;;;11.40;100.00
44255;BME280;29933;47.226;15.734;2022-09-27T00:45:27;94967.41;;;11.41;100.00
44255;BME280;29933;47.226;15.734;2022-09-27T00:48:00;94964.25;;;11.43;100.00
44255;BME280;29933;47.226;15.734;2022-09-27T00:50:38;94960.34;;;11.44;100.00
44255;BME280;29933;47.226;15.734;2022-09-27T00:55:53;94949.06;;;11.45;100.00
44255;BME280;29933;47.226;15.734;2022-09-27T00:58:23;94940.91;;;11.45;100.00
44255;BME280;29933;47.226;15.734;2022-09-27T01:00:54;94938.97;;;11.46;100.00
44255;BME280;29933;47.226;15.734;2022-09-27T01:03:27;94937.00;;;11.46;100.00
44255;BME280;29933;47.226;15.734;2022-09-27T01:05:56;94928.84;;;11.46;100.00
44255;BME280;29933;47.226;15.734;2022-09-27T01:08:23;94927.66;;;11.47;100.00
44255;BME280;29933;47.226;15.734;2022-09-27T01:11:07;94921.13;;;11.45;100.00
44255;BME280;29933;47.226;15.734;2022-09-27T01:13:49;94934.69;;;11.45;100.00
44255;BME280;29933;47.226;15.734;2022-09-27T01:16:23;94923.81;;;11.45;100.00
44255;BME280;29933;47.226;15.734;2022-09-27T01:22:00;94920.34;;;11.44;100.00
44255;BME280;29933;47.226;15.734;2022-09-27T01:24:51;94919.16;;;11.45;100.00
44255;BME280;29933;47.226;15.734;2022-09-27T01:28:10;94919.16;;;11.45;100.00
44255;BME280;29933;47.226;15.734;2022-09-27T01:39:19;94902.94;;;11.42;100.00
44255;BME280;29933;47.226;15.734;2022-09-27T01:42:13;94891.28;;;11.41;100.00
44255;BME280;29933;47.226;15.734;2022-09-27T01:47:18;94885.03;;;11.44;100.00
44255;BME280;29933;47.226;15.734;2022-09-27T01:52:53;94875.69;;;11.45;100.00
44255;BME280;29933;47.226;15.734;2022-09-27T01:55:22;94868.81;;;11.41;100.00
44255;BME280;29933;47.226;15.734;2022-09-27T01:58:03;94872.78;;;11.36;100.00
44255;BME280;29933;47.226;15.734;2022-09-27T02:00:31;94860.06;;;11.33;100.00
44255;BME280;29933;47.226;15.734;2022-09-27T02:02:59;94857.75;;;11.31;100.00
44255;BME280;29933;47.226;15.734;2022-09-27T02:05:48;94855.81;;;11.32;100.00
44255;BME280;29933;47.226;15.734;2022-09-27T02:08:40;94844.53;;;11.33;100.00
44255;BME280;29933;47.226;15.734;2022-09-27T02:11:12;94849.63;;;11.31;100.00
44255;BME280;29933;47.226;15.734;2022-09-27T02:13:52;94837.25;;;11.30;100.00
44255;BME280;29933;47.226;15.734;2022-09-27T02:21:48;94833.50;;;11.24;100.00
44255;BME280;29933;47.226;15.734;2022-09-27T02:24:21;94830.88;;;11.21;100.00
44255;BME280;29933;47.226;15.734;2022-09-27T02:26:54;94825.28;;;11.11;100.00
44255;BME280;29933;47.226;15.734;2022-09-27T02:29:32;94822.78;;;11.04;100.00
44255;BME280;29933;47.226;15.734;2022-09-27T02:31:59;94823.19;;;11.02;100.00
44255;BME280;29933;47.226;15.734;2022-09-27T02:34:27;94827.44;;;11.04;100.00
44255;BME280;29933;47.226;15.734;2022-09-27T02:36:54;94827.78;;;11.06;100.00
44255;BME280;29933;47.226;15.734;2022-09-27T02:39:21;94828.53;;;11.06;100.00
44255;BME280;29933;47.226;15.734;2022-09-27T02:41:47;94823.09;;;11.06;100.00
44255;BME280;29933;47.226;15.734;2022-09-27T02:44:13;94831.34;;;11.02;100.00
44255;BME280;29933;47.226;15.734;2022-09-27T02:47:17;94830.31;;;10.96;100.00
44255;BME280;29933;47.226;15.734;2022-09-27T02:50:24;94825.75;;;10.93;100.00
44255;BME280;29933;47.226;15.734;2022-09-27T03:01:07;94828.69;;;10.99;100.00
44255;BME280;29933;47.226;15.734;2022-09-27T03:04:54;94821.25;;;11.03;100.00
44255;BME280;29933;47.226;15.734;2022-09-27T03:06:47;94826.25;;;11.05;100.00
44255;BME280;29933;47.226;15.734;2022-09-27T03:09:22;94825.91;;;11.02;100.00
44255;BME280;29933;47.226;15.734;2022-09-27T03:11:48;94828.63;;;11.02;100.00
44255;BME280;29933;47.226;15.734;2022-09-27T03:14:14;94827.44;;;11.04;100.00
44255;BME280;29933;47.226;15.734;2022-09-27T03:16:40;94828.22;;;11.04;100.00
44255;BME280;29933;47.226;15.734;2022-09-27T03:19:07;94828.97;;;11.05;100.00
44255;BME280;29933;47.226;15.734;2022-09-27T03:21:33;94819.28;;;11.04;100.00
44255;BME280;29933;47.226;15.734;2022-09-27T03:24:00;94810.78;;;11.01;100.00
44255;BME280;29933;47.226;15.734;2022-09-27T03:26:26;94809.28;;;11.00;100.00
44255;BME280;29933;47.226;15.734;2022-09-27T03:28:52;94810.03;;;11.01;100.00
44255;BME280;29933;47.226;15.734;2022-09-27T03:31:18;94799.06;;;11.05;100.00
44255;BME280;29933;47.226;15.734;2022-09-27T03:33:44;94797.91;;;11.06;100.00
44255;BME280;29933;47.226;15.734;2022-09-27T03:36:10;94799.44;;;11.07;100.00
44255;BME280;29933;47.226;15.734;2022-09-27T03:38:36;94791.28;;;11.07;100.00
44255;BME280;29933;47.226;15.734;2022-09-27T03:41:03;94785.84;;;11.07;100.00
44255;BME280;29933;47.226;15.734;2022-09-27T03:43:29;94782.69;;;11.08;100.00
44255;BME280;29933;47.226;15.734;2022-09-27T03:45:55;94778.00;;;11.09;100.00
44255;BME280;29933;47.226;15.734;2022-09-27T03:48:21;94779.19;;;11.08;100.00
44255;BME280;29933;47.226;15.734;2022-09-27T03:50:46;94767.91;;;11.09;100.00
44255;BME280;29933;47.226;15.734;2022-09-27T03:53:12;94764.00;;;11.10;100.00
44255;BME280;29933;47.226;15.734;2022-09-27T03:55:38;94769.41;;;11.10;100.00
44255;BME280;29933;47.226;15.734;2022-09-27T03:58:04;94757.81;;;11.10;100.00
44255;BME280;29933;47.226;15.734;2022-09-27T04:00:30;94753.91;;;11.11;100.00
44255;BME280;29933;47.226;15.734;2022-09-27T04:02:57;94748.03;;;11.12;100.00
44255;BME280;29933;47.226;15.734;2022-09-27T04:05:25;94734.44;;;11.12;100.00
44255;BME280;29933;47.226;15.734;2022-09-27T04:07:51;94724.09;;;11.07;100.00
44255;BME280;29933;47.226;15.734;2022-09-27T04:10:17;94710.63;;;11.04;100.00
44255;BME280;29933;47.226;15.734;2022-09-27T04:12:43;94707.91;;;11.04;100.00
44255;BME280;29933;47.226;15.734;2022-09-27T04:15:09;94702.81;;;11.06;100.00
44255;BME280;29933;47.226;15.734;2022-09-27T04:17:35;94702.81;;;11.06;100.00
44255;BME280;29933;47.226;15.734;2022-09-27T04:20:01;94698.91;;;11.07;100.00
44255;BME280;29933;47.226;15.734;2022-09-27T04:22:28;94695.75;;;11.08;100.00
44255;BME280;29933;47.226;15.734;2022-09-27T04:24:54;94704.66;;;11.09;100.00
44255;BME280;29933;47.226;15.734;2022-09-27T04:27:20;94697.28;;;11.09;100.00
44255;BME280;29933;47.226;15.734;2022-09-27T04:29:47;94699.56;;;11.11;100.00
44255;BME280;29933;47.226;15.734;2022-09-27T04:32:13;94696.41;;;11.12;100.00
44255;BME280;29933;47.226;15.734;2022-09-27T04:34:39;94695.22;;;11.13;100.00
44255;BME280;29933;47.226;15.734;2022-09-27T04:37:24;94692.16;;;11.11;100.00
44255;BME280;29933;47.226;15.734;2022-09-27T04:39:51;94697.28;;;11.09;100.00
44255;BME280;29933;47.226;15.734;2022-09-27T04:42:17;94689.13;;;11.09;100.00
44255;BME280;29933;47.226;15.734;2022-09-27T04:44:43;94692.59;;;11.10;100.00
44255;BME280;29933;47.226;15.734;2022-09-27T04:47:09;94689.44;;;11.11;100.00
44255;BME280;29933;47.226;15.734;2022-09-27T04:49:35;94691.41;;;11.11;100.00
44255;BME280;29933;47.226;15.734;2022-09-27T04:52:01;94677.94;;;11.07;100.00
44255;BME280;29933;47.226;15.734;2022-09-27T04:54:27;94681.38;;;11.08;100.00
44255;BME280;29933;47.226;15.734;2022-09-27T04:56:54;94683.25;;;11.11;100.00
44255;BME280;29933;47.226;15.734;2022-09-27T04:59:20;94677.81;;;11.11;100.00
44255;BME280;29933;47.226;15.734;2022-09-27T05:01:46;94676.28;;;11.10;100.00
44255;BME280;29933;47.226;15.734;2022-09-27T05:04:11;94677.81;;;11.11;100.00
44255;BME280;29933;47.226;15.734;2022-09-27T05:06:37;94675.22;;;11.07;100.00
44255;BME280;29933;47.226;15.734;2022-09-27T05:09:03;94671.41;;;11.05;100.00
44255;BME280;29933;47.226;15.734;2022-09-27T05:11:29;94675.22;;;11.07;100.00
44255;BME280;29933;47.226;15.734;2022-09-27T05:13:55;94670.53;;;11.08;100.00
44255;BME280;29933;47.226;15.734;2022-09-27T05:16:21;94667.06;;;11.07;100.00
44255;BME280;29933;47.226;15.734;2022-09-27T05:18:47;94662.06;;;11.06;100.00
44255;BME280;29933;47.226;15.734;2022-09-27T05:21:13;94653.91;;;11.06;100.00
44255;BME280;29933;47.226;15.734;2022-09-27T05:23:39;94654.66;;;11.06;100.00
44255;BME280;29933;47.226;15.734;2022-09-27T05:26:06;94647.38;;;11.03;100.00
44255;BME280;29933;47.226;15.734;2022-09-27T05:28:33;94645.41;;;11.04;100.00
44255;BME280;29933;47.226;15.734;2022-09-27T05:31:03;94644.25;;;11.05;100.00
44255;BME280;29933;47.226;15.734;2022-09-27T05:33:29;94644.56;;;11.07;100.00
44255;BME280;29933;47.226;15.734;2022-09-27T05:35:56;94638.25;;;11.10;100.00
44255;BME280;29933;47.226;15.734;2022-09-27T05:38:23;94641.31;;;11.12;100.00
44255;BME280;29933;47.226;15.734;2022-09-27T05:40:50;94633.06;;;11.15;100.00
44255;BME280;29933;47.226;15.734;2022-09-27T05:43:17;94632.19;;;11.18;100.00
44255;BME280;29933;47.226;15.734;2022-09-27T05:45:43;94633.28;;;11.21;100.00
44255;BME280;29933;47.226;15.734;2022-09-27T05:48:10;94636.00;;;11.21;100.00
44255;BME280;29933;47.226;15.734;2022-09-27T05:50:37;94636.78;;;11.22;100.00
44255;BME280;29933;47.226;15.734;2022-09-27T05:53:04;94638.72;;;11.21;100.00
44255;BME280;29933;47.226;15.734;2022-09-27T05:55:30;94639.06;;;11.23;100.00
44255;BME280;29933;47.226;15.734;2022-09-27T05:58:07;94639.25;;;11.16;100.00
44255;BME280;29933;47.226;15.734;2022-09-27T06:00:35;94646.53;;;11.19;100.00
44255;BME280;29933;47.226;15.734;2022-09-27T06:03:05;94640.13;;;11.13;100.00
44255;BME280;29933;47.226;15.734;2022-09-27T06:05:36;94646.75;;;11.12;100.00
44255;BME280;29933;47.226;15.734;2022-09-27T06:08:09;94648.28;;;11.13;100.00
44255;BME280;29933;47.226;15.734;2022-09-27T06:10:36;94644.03;;;11.12;100.00
44255;BME280;29933;47.226;15.734;2022-09-27T06:13:07;94646.75;;;11.12;100.00
44255;BME280;29933;47.226;15.734;2022-09-27T06:15:36;94638.59;;;11.12;100.00
44255;BME280;29933;47.226;15.734;2022-09-27T06:18:08;94642.16;;;11.09;100.00
44255;BME280;29933;47.226;15.734;2022-09-27T06:20:37;94642.16;;;11.09;100.00
44255;BME280;29933;47.226;15.734;2022-09-27T06:23:09;94639.78;;;11.11;100.00
44255;BME280;29933;47.226;15.734;2022-09-27T06:25:36;94638.25;;;11.10;100.00
44255;BME280;29933;47.226;15.734;2022-09-27T06:28:03;94647.16;;;11.10;100.00
44255;BME280;29933;47.226;15.734;2022-09-27T06:30:30;94640.97;;;11.10;100.00
44255;BME280;29933;47.226;15.734;2022-09-27T06:33:01;94642.84;;;11.13;100.00
44255;BME280;29933;47.226;15.734;2022-09-27T06:35:28;94643.94;;;11.15;100.00
44255;BME280;29933;47.226;15.734;2022-09-27T06:37:55;94634.56;;;11.16;100.00
44255;BME280;29933;47.226;15.734;2022-09-27T06:40:22;94638.38;;;11.19;100.00
44255;BME280;29933;47.226;15.734;2022-09-27T06:42:52;94634.81;;;11.22;100.00
44255;BME280;29933;47.226;15.734;2022-09-27T06:45:18;94640.13;;;11.26;100.00
44255;BME280;29933;47.226;15.734;2022-09-27T06:47:44;94643.94;;;11.28;100.00
44255;BME280;29933;47.226;15.734;2022-09-27T06:50:11;94644.28;;;11.30;100.00
44255;BME280;29933;47.226;15.734;2022-09-27T06:52:37;94639.50;;;11.34;100.00
44255;BME280;29933;47.226;15.734;2022-09-27T06:55:11;94634.72;;;11.39;100.00
44255;BME280;29933;47.226;15.734;2022-09-27T06:57:36;94638.84;;;11.43;100.00
44255;BME280;29933;47.226;15.734;2022-09-27T07:00:21;94636.47;;;11.45;100.00
44255;BME280;29933;47.226;15.734;2022-09-27T07:02:56;94629.81;;;11.46;100.00
44255;BME280;29933;47.226;15.734;2022-09-27T07:05:29;94637.84;;;11.50;100.00
44255;BME280;29933;47.226;15.734;2022-09-27T07:07:57;94637.75;;;11.54;100.00
44255;BME280;29933;47.226;15.734;2022-09-27T07:10:29;94635.25;;;11.59;100.00
44255;BME280;29933;47.226;15.734;2022-09-27T07:13:06;94640.59;;;11.63;100.00
44255;BME280;29933;47.226;15.734;2022-09-27T07:15:38;94644.72;;;11.67;100.00
44255;BME280;29933;47.226;15.734;2022-09-27T07:18:07;94641.13;;;11.71;100.00
44255;BME280;29933;47.226;15.734;2022-09-27T07:20:34;94652.00;;;11.71;100.00
44255;BME280;29933;47.226;15.734;2022-09-27T07:23:04;94653.84;;;11.74;100.00
44255;BME280;29933;47.226;15.734;2022-09-27T07:25:31;94651.00;;;11.77;100.00
44255;BME280;29933;47.226;15.734;2022-09-27T07:28:06;94648.75;;;11.76;100.00
44255;BME280;29933;47.226;15.734;2022-09-27T07:30:34;94657.09;;;11.81;100.00
44255;BME280;29933;47.226;15.734;2022-09-27T07:33:02;94657.75;;;11.86;100.00
44255;BME280;29933;47.226;15.734;2022-09-27T07:35:28;94659.06;;;11.81;100.00
44255;BME280;29933;47.226;15.734;2022-09-27T07:37:56;94667.88;;;11.85;100.00
44255;BME280;29933;47.226;15.734;2022-09-27T07:40:23;94670.19;;;11.87;100.00
44255;BME280;29933;47.226;15.734;2022-09-27T07:42:57;94676.25;;;11.91;100.00
44255;BME280;29933;47.226;15.734;2022-09-27T07:45:25;94673.88;;;11.93;100.00
44255;BME280;29933;47.226;15.734;2022-09-27T07:47:51;94673.00;;;11.96;100.00
44255;BME280;29933;47.226;15.734;2022-09-27T07:50:18;94674.53;;;11.97;100.00
44255;BME280;29933;47.226;15.734;2022-09-27T07:52:47;94679.53;;;11.98;100.00
44255;BME280;29933;47.226;15.734;2022-09-27T07:55:15;94682.16;;;12.02;100.00
44255;BME280;29933;47.226;15.734;2022-09-27T07:57:41;94684.31;;;12.07;100.00
44255;BME280;29933;47.226;15.734;2022-09-27T08:00:11;94679.66;;;12.08;100.00
44255;BME280;29933;47.226;15.734;2022-09-27T08:02:37;94683.44;;;12.10;100.00
44255;BME280;29933;47.226;15.734;2022-09-27T08:05:04;94683.31;;;12.14;100.00
44255;BME280;29933;47.226;15.734;2022-09-27T08:07:30;94682.78;;;12.19;100.00
44255;BME280;29933;47.226;15.734;2022-09-27T08:09:57;94687.00;;;12.20;100.00
44255;BME280;29933;47.226;15.734;2022-09-27T08:12:24;94692.78;;;12.22;100.00
44255;BME280;29933;47.226;15.734;2022-09-27T08:14:50;94684.94;;;12.24;100.00
44255;BME280;29933;47.226;15.734;2022-09-27T08:17:17;94691.59;;;12.23;100.00
44255;BME280;29933;47.226;15.734;2022-09-27T08:19:44;94692.66;;;12.26;100.00
44255;BME280;29933;47.226;15.734;2022-09-27T08:22:13;94691.78;;;12.29;100.00
44255;BME280;29933;47.226;15.734;2022-09-27T08:24:39;94688.94;;;12.32;100.00
44255;BME280;29933;47.226;15.734;2022-09-27T08:27:06;94686.22;;;12.32;100.00
44255;BME280;29933;47.226;15.734;2022-09-27T08:29:33;94688.94;;;12.32;100.00
44255;BME280;29933;47.226;15.734;2022-09-27T08:32:00;94695.91;;;12.34;100.00
44255;BME280;29933;47.226;15.734;2022-09-27T08:34:26;94698.84;;;12.39;100.00
44255;BME280;29933;47.226;15.734;2022-09-27T08:36:54;94698.75;;;12.43;100.00
44255;BME280;29933;47.226;15.734;2022-09-27T08:39:21;94701.66;;;12.48;100.00
44255;BME280;29933;47.226;15.734;2022-09-27T08:44:53;94701.81;;;12.67;100.00
44255;BME280;29933;47.226;15.734;2022-09-27T08:47:32;94704.31;;;12.61;100.00
44255;BME280;29933;47.226;15.734;2022-09-27T08:50:36;94700.09;;;12.60;100.00
44255;BME280;29933;47.226;15.734;2022-09-27T08:53:25;94695.50;;;12.70;100.00
44255;BME280;29933;47.226;15.734;2022-09-27T08:55:54;94693.78;;;12.86;100.00
44255;BME280;29933;47.226;15.734;2022-09-27T08:58:29;94692.59;;;13.09;100.00
44255;BME280;29933;47.226;15.734;2022-09-27T09:01:00;94699.50;;;13.23;100.00
44255;BME280;29933;47.226;15.734;2022-09-27T09:03:30;94701.41;;;13.35;100.00
44255;BME280;29933;47.226;15.734;2022-09-27T09:06:25;94694.03;;;13.45;100.00
44255;BME280;29933;47.226;15.734;2022-09-27T09:15:34;94686.28;;;13.66;100.00
44255;BME280;29933;47.226;15.734;2022-09-27T09:21:11;94688.75;;;13.82;100.00
44255;BME280;29933;47.226;15.734;2022-09-27T09:29:51;94689.94;;;14.13;100.00
44255;BME280;29933;47.226;15.734;2022-09-27T09:32:51;94682.97;;;14.21;100.00
44255;BME280;29933;47.226;15.734;2022-09-27T09:35:39;94690.22;;;14.05;100.00
44255;BME280;29933;47.226;15.734;2022-09-27T09:38:25;94680.19;;;14.02;100.00
44255;BME280;29933;47.226;15.734;2022-09-27T09:43:39;94692.06;;;14.18;100.00
44255;BME280;29933;47.226;15.734;2022-09-27T09:46:14;94694.22;;;14.23;100.00
44255;BME280;29933;47.226;15.734;2022-09-27T09:49:11;94692.22;;;14.23;100.00
44255;BME280;29933;47.226;15.734;2022-09-27T09:51:47;94693.13;;;14.20;100.00
44255;BME280;29933;47.226;15.734;2022-09-27T09:54:34;94692.50;;;14.16;100.00
44255;BME280;29933;47.226;15.734;2022-09-27T09:57:39;94692.81;;;14.09;100.00
44255;BME280;29933;47.226;15.734;2022-09-27T10:00:16;94688.81;;;13.91;100.00
44255;BME280;29933;47.226;15.734;2022-09-27T10:02:45;94701.69;;;13.59;100.00
44255;BME280;29933;47.226;15.734;2022-09-27T10:05:21;94715.78;;;13.36;100.00
44255;BME280;29933;47.226;15.734;2022-09-27T10:07:54;94728.59;;;13.26;100.00
44255;BME280;29933;47.226;15.734;2022-09-27T10:10:22;94739.88;;;13.15;100.00
44255;BME280;29933;47.226;15.734;2022-09-27T10:12:49;94747.34;;;13.02;100.00
44255;BME280;29933;47.226;15.734;2022-09-27T10:15:24;94743.88;;;12.66;100.00
44255;BME280;29933;47.226;15.734;2022-09-27T10:17:55;94733.06;;;12.27;100.00
44255;BME280;29933;47.226;15.734;2022-09-27T10:20:42;94732.00;;;11.99;100.00
44255;BME280;29933;47.226;15.734;2022-09-27T10:23:21;94722.28;;;11.72;100.00
44255;BME280;29933;47.226;15.734;2022-09-27T10:25:56;94728.22;;;11.41;100.00
44255;BME280;29933;47.226;15.734;2022-09-27T10:31:21;94722.53;;;10.93;100.00
44255;BME280;29933;47.226;15.734;2022-09-27T10:33:57;94725.72;;;10.75;100.00
44255;BME280;29933;47.226;15.734;2022-09-27T10:36:33;94730.41;;;10.75;100.00
44255;BME280;29933;47.226;15.734;2022-09-27T10:39:05;94737.50;;;10.85;100.00
44255;BME280;29933;47.226;15.734;2022-09-27T10:41:34;94725.56;;;10.95;100.00
44255;BME280;29933;47.226;15.734;2022-09-27T10:46:48;94728.34;;;10.79;100.00
44255;BME280;29933;47.226;15.734;2022-09-27T10:49:36;94729.22;;;10.76;100.00
44255;BME280;29933;47.226;15.734;2022-09-27T10:52:18;94725.00;;;10.58;100.00
44255;BME280;29933;47.226;15.734;2022-09-27T10:55:00;94723.28;;;10.31;100.00
44255;BME280;29933;47.226;15.734;2022-09-27T10:57:31;94719.84;;;10.14;100.00
44255;BME280;29933;47.226;15.734;2022-09-27T11:00:06;94714.16;;;10.09;100.00
44255;BME280;29933;47.226;15.734;2022-09-27T11:02:37;94717.72;;;10.05;100.00
44255;BME280;29933;47.226;15.734;2022-09-27T11:10:59;94735.25;;;10.17;100.00
44255;BME280;29933;47.226;15.734;2022-09-27T11:13:25;94740.34;;;10.32;100.00
44255;BME280;29933;47.226;15.734;2022-09-27T11:58:04;94685.50;;;11.67;100.00
44255;BME280;29933;47.226;15.734;2022-09-27T12:00:40;94695.31;;;11.78;100.00
44255;BME280;29933;47.226;15.734;2022-09-27T12:06:20;94691.69;;;11.81;100.00
44255;BME280;29933;47.226;15.734;2022-09-27T12:09:03;94699.53;;;11.79;100.00
44255;BME280;29933;47.226;15.734;2022-09-27T12:14:28;94694.31;;;11.72;100.00
44255;BME280;29933;47.226;15.734;2022-09-27T12:16:58;94698.09;;;11.61;100.00
44255;BME280;29933;47.226;15.734;2022-09-27T12:19:35;94703.78;;;11.54;100.00
44255;BME280;29933;47.226;15.734;2022-09-27T12:22:06;94692.78;;;11.45;100.00
44255;BME280;29933;47.226;15.734;2022-09-27T12:24:36;94699.41;;;11.44;100.00
44255;BME280;29933;47.226;15.734;2022-09-27T12:27:42;94696.13;;;11.49;100.00
44255;BME280;29933;47.226;15.734;2022-09-27T12:30:13;94692.91;;;11.54;100.00
44255;BME280;29933;47.226;15.734;2022-09-27T12:33:03;94700.81;;;11.61;100.00
44255;BME280;29933;47.226;15.734;2022-09-27T12:35:35;94697.03;;;11.72;100.00
44255;BME280;29933;47.226;15.734;2022-09-27T12:38:16;94704.66;;;11.77;100.00
44255;BME280;29933;47.226;15.734;2022-09-27T12:40:50;94705.50;;;11.74;100.00
44255;BME280;29933;47.226;15.734;2022-09-27T12:43:18;94702.78;;;11.74;100.00
44255;BME280;29933;47.226;15.734;2022-09-27T12:51:19;94731.50;;;11.88;100.00
44255;BME280;29933;47.226;15.734;2022-09-27T13:03:04;94735.81;;;12.02;100.00
44255;BME280;29933;47.226;15.734;2022-09-27T13:05:46;94735.38;;;12.03;100.00
44255;BME280;29933;47.226;15.734;2022-09-27T13:12:15;94737.44;;;11.99;100.00
44255;BME280;29933;47.226;15.734;2022-09-27T13:28:59;94744.94;;;12.08;100.00
44255;BME280;29933;47.226;15.734;2022-09-27T13:34:38;94738.19;;;11.99;100.00
44255;BME280;29933;47.226;15.734;2022-09-27T13:37:50;94730.88;;;11.71;100.00
44255;BME280;29933;47.226;15.734;2022-09-27T13:46:01;94741.69;;;11.32;100.00
44255;BME280;29933;47.226;15.734;2022-09-27T13:51:19;94740.78;;;11.22;100.00
44255;BME280;29933;47.226;15.734;2022-09-27T13:53:57;94743.69;;;11.15;100.00
44255;BME280;29933;47.226;15.734;2022-09-27T13:59:16;94737.06;;;11.16;100.00
44255;BME280;29933;47.226;15.734;2022-09-27T14:01:54;94730.75;;;11.19;100.00
44255;BME280;29933;47.226;15.734;2022-09-27T14:04:32;94735.00;;;11.20;100.00
44255;BME280;29933;47.226;15.734;2022-09-27T14:07:03;94745.03;;;11.23;100.00
44255;BME280;29933;47.226;15.734;2022-09-27T14:09:37;94749.19;;;11.28;100.00
44255;BME280;29933;47.226;15.734;2022-09-27T14:12:21;94756.03;;;11.32;100.00
44255;BME280;29933;47.226;15.734;2022-09-27T14:14:50;94757.22;;;11.31;100.00
44255;BME280;29933;47.226;15.734;2022-09-27T14:17:19;94760.94;;;11.38;100.00
44255;BME280;29933;47.226;15.734;2022-09-27T14:19:45;94763.09;;;11.43;100.00
44255;BME280;29933;47.226;15.734;2022-09-27T14:22:23;94761.69;;;11.38;100.00
44255;BME280;29933;47.226;15.734;2022-09-27T14:24:53;94775.72;;;11.37;100.00
44255;BME280;29933;47.226;15.734;2022-09-27T14:27:28;94783.63;;;11.31;100.00
44255;BME280;29933;47.226;15.734;2022-09-27T14:30:05;94785.16;;;11.32;100.00
44255;BME280;29933;47.226;15.734;2022-09-27T14:32:33;94789.06;;;11.31;100.00
44255;BME280;29933;47.226;15.734;2022-09-27T14:37:53;94784.59;;;11.24;100.00
44255;BME280;29933;47.226;15.734;2022-09-27T14:40:20;94794.16;;;11.29;100.00
44255;BME280;29933;47.226;15.734;2022-09-27T14:42:56;94786.00;;;11.29;100.00
44255;BME280;29933;47.226;15.734;2022-09-27T14:45:37;94779.16;;;11.24;100.00
44255;BME280;29933;47.226;15.734;2022-09-27T14:48:28;94787.94;;;11.15;100.00
44255;BME280;29933;47.226;15.734;2022-09-27T14:51:20;94772.47;;;11.12;100.00
44255;BME280;29933;47.226;15.734;2022-09-27T14:53:51;94767.03;;;11.12;100.00
44255;BME280;29933;47.226;15.734;2022-09-27T14:59:03;94791.84;;;11.14;100.00
44255;BME280;29933;47.226;15.734;2022-09-27T15:01:30;94806.00;;;11.22;100.00
44255;BME280;29933;47.226;15.734;2022-09-27T15:04:04;94808.53;;;11.29;100.00
44255;BME280;29933;47.226;15.734;2022-09-27T15:06:32;94812.28;;;11.19;100.00
44255;BME280;29933;47.226;15.734;2022-09-27T15:08:59;94817.56;;;11.10;100.00
44255;BME280;29933;47.226;15.734;2022-09-27T15:11:26;94828.28;;;11.00;100.00
44255;BME280;29933;47.226;15.734;2022-09-27T15:13:54;94837.75;;;10.79;100.00
44255;BME280;29933;47.226;15.734;2022-09-27T15:16:22;94839.75;;;10.59;100.00
44255;BME280;29933;47.226;15.734;2022-09-27T15:19:02;94850.19;;;10.44;100.00
44255;BME280;29933;47.226;15.734;2022-09-27T15:21:35;94853.41;;;10.39;100.00
44255;BME280;29933;47.226;15.734;2022-09-27T15:24:03;94866.34;;;10.31;100.00
44255;BME280;29933;47.226;15.734;2022-09-27T15:26:42;94865.41;;;10.21;100.00
44255;BME280;29933;47.226;15.734;2022-09-27T15:29:23;94873.34;;;10.12;100.00
44255;BME280;29933;47.226;15.734;2022-09-27T15:32:06;94866.03;;;10.09;100.00
44255;BME280;29933;47.226;15.734;2022-09-27T15:34:39;94872.66;;;10.08;100.00
44255;BME280;29933;47.226;15.734;2022-09-27T15:37:05;94882.75;;;10.07;100.00
44255;BME280;29933;47.226;15.734;2022-09-27T15:39:39;94870.78;;;10.04;100.00
44255;BME280;29933;47.226;15.734;2022-09-27T15:42:13;94868.81;;;10.05;100.00
44255;BME280;29933;47.226;15.734;2022-09-27T15:44:45;94861.78;;;10.08;100.00
44255;BME280;29933;47.226;15.734;2022-09-27T15:52:52;94865.91;;;10.16;100.00
44255;BME280;29933;47.226;15.734;2022-09-27T15:55:26;94871.56;;;10.21;100.00
44255;BME280;29933;47.226;15.734;2022-09-27T15:58:15;94875.75;;;10.26;100.00